createdAt,value
2023-05-10T00:01:08.624Z,2.50
2023-05-10T00:03:36.571Z,2.90
2023-05-10T00:06:04.141Z,2.70
2023-05-10T00:08:31.715Z,2.78
2023-05-10T00:10:59.621Z,2.80
2023-05-10T00:13:27.212Z,2.67
2023-05-10T00:15:54.944Z,2.78
2023-05-10T00:18:22.794Z,2.67
2023-05-10T00:20:50.588Z,2.78
2023-05-10T00:23:18.165Z,2.90
2023-05-10T00:25:45.987Z,2.50
2023-05-10T00:28:13.506Z,2.95
2023-05-10T00:30:41.015Z,2.80
2023-05-10T00:33:08.853Z,2.55
2023-05-10T00:35:37.041Z,2.47
2023-05-10T00:38:04.684Z,2.67
2023-05-10T00:40:32.582Z,2.80
2023-05-10T00:43:01.557Z,2.65
2023-05-10T00:45:29.257Z,2.80
2023-05-10T00:47:58.321Z,2.42
2023-05-10T00:50:25.965Z,2.70
2023-05-10T00:52:53.841Z,2.60
2023-05-10T00:55:22.583Z,2.90
2023-05-10T00:57:50.325Z,2.40
2023-05-10T01:00:19.375Z,2.58
2023-05-10T01:02:47.841Z,2.57
2023-05-10T01:05:15.427Z,2.62
2023-05-10T01:07:43.093Z,2.65
2023-05-10T01:10:11.987Z,2.70
2023-05-10T01:12:42.367Z,2.75
2023-05-10T01:15:12.239Z,3.00
2023-05-10T01:17:42.307Z,3.20
2023-05-10T01:20:11.370Z,2.97
2023-05-10T01:23:08.110Z,3.00
2023-05-10T01:26:08.904Z,2.83
2023-05-10T01:28:51.292Z,2.57
2023-05-10T01:31:37.721Z,2.67
2023-05-10T01:34:17.481Z,3.40
2023-05-10T01:37:21.318Z,2.42
2023-05-10T01:39:59.345Z,2.92
2023-05-10T01:42:34.799Z,3.37
2023-05-10T01:45:40.715Z,3.83
2023-05-10T01:48:11.603Z,2.92
2023-05-10T01:50:44.357Z,3.42
2023-05-10T01:53:18.809Z,3.50
2023-05-10T01:55:49.725Z,3.63
2023-05-10T01:58:31.490Z,3.70
2023-05-10T02:01:02.553Z,3.47
2023-05-10T02:03:33.402Z,3.30
2023-05-10T02:06:01.021Z,3.53
2023-05-10T02:08:29.337Z,4.03
2023-05-10T02:10:59.674Z,3.75
2023-05-10T02:13:30.909Z,3.08
2023-05-10T02:16:00.284Z,4.32
2023-05-10T02:18:28.684Z,3.75
2023-05-10T02:20:57.612Z,3.47
2023-05-10T02:23:27.351Z,3.60
2023-05-10T02:25:58.041Z,3.60
2023-05-10T02:28:27.139Z,4.07
2023-05-10T02:30:56.335Z,3.72
2023-05-10T02:33:25.133Z,4.20
2023-05-10T02:35:53.598Z,4.10
2023-05-10T02:38:23.781Z,4.03
2023-05-10T02:40:52.379Z,3.75
2023-05-10T02:43:23.613Z,4.18
2023-05-10T02:45:51.714Z,4.60
2023-05-10T02:48:19.284Z,3.92
2023-05-10T02:50:49.649Z,4.03
2023-05-10T02:53:22.501Z,3.95
2023-05-10T02:55:53.556Z,4.22
2023-05-10T02:58:21.875Z,5.50
2023-05-10T03:00:49.449Z,4.30
2023-05-10T03:03:17.017Z,4.20
2023-05-10T03:05:44.814Z,4.30
2023-05-10T03:08:12.704Z,4.70
2023-05-10T03:10:57.238Z,4.63
2023-05-10T03:13:58.214Z,4.93
2023-05-10T03:16:36.836Z,4.37
2023-05-10T03:19:21.718Z,4.93
2023-05-10T03:21:53.651Z,5.22
2023-05-10T03:24:24.274Z,4.40
2023-05-10T03:26:56.655Z,4.50
2023-05-10T03:29:27.319Z,4.85
2023-05-10T03:31:54.920Z,4.90
2023-05-10T03:34:26.067Z,5.22
2023-05-10T03:36:53.981Z,4.77
2023-05-10T03:39:22.431Z,5.82
2023-05-10T03:41:50.521Z,4.85
2023-05-10T03:44:18.753Z,5.10
2023-05-10T03:46:46.618Z,5.22
2023-05-10T03:49:14.422Z,5.03
2023-05-10T03:51:42.332Z,5.10
2023-05-10T03:54:09.919Z,5.10
2023-05-10T03:56:37.546Z,6.00
2023-05-10T03:59:08.460Z,5.55
2023-05-10T04:01:36.189Z,5.10
2023-05-10T04:04:04.231Z,5.35
2023-05-10T04:06:33.031Z,5.18
2023-05-10T04:09:02.704Z,5.80
2023-05-10T04:11:30.504Z,6.12
2023-05-10T04:13:58.023Z,5.90
2023-05-10T04:16:25.593Z,5.90
2023-05-10T04:18:53.546Z,6.78
2023-05-10T04:21:21.676Z,6.18
2023-05-10T04:23:49.151Z,6.82
2023-05-10T04:26:17.257Z,6.47
2023-05-10T04:28:44.835Z,7.45
2023-05-10T04:31:12.654Z,7.82
2023-05-10T04:33:40.527Z,7.12
2023-05-10T04:36:08.301Z,7.03
2023-05-10T04:38:35.809Z,6.60
2023-05-10T04:41:08.897Z,6.12
2023-05-10T04:43:37.311Z,7.18
2023-05-10T04:46:06.512Z,7.15
2023-05-10T04:48:34.601Z,6.37
2023-05-10T04:51:02.254Z,6.93
2023-05-10T04:53:30.014Z,6.93
2023-05-10T04:55:57.495Z,7.35
2023-05-10T04:58:24.990Z,6.40
2023-05-10T05:00:52.807Z,7.37
2023-05-10T05:03:20.509Z,7.23
2023-05-10T05:05:48.116Z,6.85
2023-05-10T05:08:15.934Z,6.62
2023-05-10T05:10:43.838Z,7.45
2023-05-10T05:13:11.366Z,6.93
2023-05-10T05:15:39.181Z,6.40
2023-05-10T05:18:06.707Z,6.43
2023-05-10T05:20:35.527Z,6.35
2023-05-10T05:23:03.436Z,6.47
2023-05-10T05:25:30.978Z,6.25
2023-05-10T05:27:58.549Z,6.43
2023-05-10T05:30:26.362Z,6.35
2023-05-10T05:32:54.077Z,6.35
2023-05-10T05:35:21.796Z,6.00
2023-05-10T05:37:49.562Z,6.10
2023-05-10T05:40:17.180Z,5.77
2023-05-10T05:42:44.702Z,5.85
2023-05-10T05:45:14.381Z,6.40
2023-05-10T05:47:42.407Z,5.90
2023-05-10T05:50:10.641Z,5.25
2023-05-10T05:52:38.429Z,5.67
2023-05-10T05:55:06.408Z,5.15
2023-05-10T05:57:34.700Z,5.25
2023-05-10T06:00:03.855Z,4.78
2023-05-10T06:02:40.145Z,4.87
2023-05-10T06:05:08.806Z,5.37
2023-05-10T06:07:36.288Z,5.80
2023-05-10T06:10:04.160Z,5.07
2023-05-10T06:12:32.013Z,5.28
2023-05-10T06:14:59.553Z,5.68
2023-05-10T06:17:27.605Z,4.80
2023-05-10T06:19:56.182Z,5.03
2023-05-10T06:22:23.879Z,4.62
2023-05-10T06:24:51.632Z,4.90
2023-05-10T06:27:19.467Z,4.37
2023-05-10T06:29:47.034Z,4.50
2023-05-10T06:32:14.516Z,4.03
2023-05-10T06:34:44.256Z,4.32
2023-05-10T06:37:11.752Z,4.72
2023-05-10T06:39:39.462Z,4.45
2023-05-10T06:42:07.266Z,4.10
2023-05-10T06:44:34.785Z,3.70
2023-05-10T06:47:02.262Z,4.10
2023-05-10T06:49:30.155Z,4.00
2023-05-10T06:51:57.716Z,4.00
2023-05-10T06:54:25.398Z,4.13
2023-05-10T06:56:53.536Z,4.20
2023-05-10T06:59:22.570Z,3.90
2023-05-10T07:01:50.223Z,4.30
2023-05-10T07:04:18.781Z,3.70
2023-05-10T07:06:47.415Z,3.57
2023-05-10T07:09:14.877Z,3.47
2023-05-10T07:11:42.752Z,3.80
2023-05-10T07:14:10.621Z,4.03
2023-05-10T07:16:38.141Z,3.70
2023-05-10T07:19:06.466Z,4.17
2023-05-10T07:21:34.076Z,4.65
2023-05-10T07:24:02.198Z,4.10
2023-05-10T07:26:30.646Z,4.28
2023-05-10T07:28:58.210Z,4.85
2023-05-10T07:31:25.798Z,4.70
2023-05-10T07:33:53.641Z,4.93
2023-05-10T07:36:21.319Z,5.20
2023-05-10T07:38:50.525Z,4.93
2023-05-10T07:41:18.339Z,5.28
2023-05-10T07:43:45.795Z,5.20
2023-05-10T07:46:13.308Z,5.55
2023-05-10T07:48:41.223Z,5.40
2023-05-10T07:51:10.422Z,5.72
2023-05-10T07:53:38.981Z,7.10
2023-05-10T07:56:33.362Z,6.57
2023-05-10T07:59:01.272Z,6.12
2023-05-10T08:01:32.347Z,6.55
2023-05-10T08:04:01.024Z,6.93
2023-05-10T08:06:30.960Z,6.37
2023-05-10T08:08:58.776Z,6.97
2023-05-10T08:11:28.613Z,7.18
2023-05-10T08:13:56.123Z,7.15
2023-05-10T08:16:23.830Z,6.82
2023-05-10T08:18:52.029Z,7.00
2023-05-10T08:21:19.730Z,6.50
2023-05-10T08:23:47.267Z,6.25
2023-05-10T08:26:15.141Z,6.32
2023-05-10T08:28:42.626Z,6.93
2023-05-10T08:31:10.165Z,7.25
2023-05-10T08:33:37.958Z,5.40
2023-05-10T08:36:05.560Z,5.93
2023-05-10T08:38:33.121Z,6.45
2023-05-10T08:41:03.293Z,5.93
2023-05-10T08:43:31.406Z,7.47
2023-05-10T08:46:05.314Z,6.17
2023-05-10T08:48:35.695Z,6.93
2023-05-10T08:51:04.803Z,5.82
2023-05-10T08:53:36.431Z,6.20
2023-05-10T08:56:04.919Z,5.82
2023-05-10T08:58:32.868Z,4.90
2023-05-10T09:01:02.006Z,4.65
2023-05-10T09:03:30.683Z,4.97
2023-05-10T09:05:58.298Z,5.43
2023-05-10T09:08:26.906Z,5.00
2023-05-10T09:10:55.912Z,5.00
2023-05-10T09:13:24.767Z,5.37
2023-05-10T09:15:53.139Z,4.60
2023-05-10T09:18:21.119Z,5.40
2023-05-10T09:20:49.556Z,5.75
2023-05-10T09:23:17.074Z,5.10
2023-05-10T09:25:44.989Z,5.28
2023-05-10T09:28:12.835Z,4.90
2023-05-10T09:30:40.671Z,5.28
2023-05-10T09:33:08.962Z,4.55
2023-05-10T09:35:37.189Z,4.77
2023-05-10T09:38:06.543Z,5.10
2023-05-10T09:40:34.472Z,4.90
2023-05-10T09:43:04.661Z,4.80
2023-05-10T09:45:36.122Z,4.97
2023-05-10T09:48:07.098Z,5.23
2023-05-10T09:50:35.315Z,4.55
2023-05-10T09:53:04.393Z,4.65
2023-05-10T09:55:45.733Z,3.83
2023-05-10T09:58:15.155Z,4.95
2023-05-10T10:00:45.166Z,4.70
2023-05-10T10:03:21.134Z,4.47
2023-05-10T10:05:50.055Z,3.72
2023-05-10T10:08:19.442Z,4.43
2023-05-10T10:10:48.076Z,4.22
2023-05-10T10:13:16.537Z,3.60
2023-05-10T10:15:45.626Z,4.30
2023-05-10T10:18:16.690Z,3.78
2023-05-10T10:20:44.754Z,3.92
2023-05-10T10:23:12.718Z,3.53
2023-05-10T10:25:40.945Z,3.60
2023-05-10T10:28:36.681Z,3.10
2023-05-10T10:31:22.693Z,3.03
2023-05-10T10:34:02.035Z,3.20
2023-05-10T10:36:29.888Z,3.70
2023-05-10T10:39:02.370Z,3.50
2023-05-10T10:41:38.348Z,3.15
2023-05-10T10:44:27.309Z,2.70
2023-05-10T10:47:09.263Z,3.67
2023-05-10T10:49:40.144Z,3.35
2023-05-10T10:52:34.519Z,3.50
2023-05-10T10:55:02.475Z,4.53
2023-05-10T10:57:33.396Z,3.53
2023-05-10T11:00:33.999Z,2.85
2023-05-10T11:03:19.596Z,3.53
2023-05-10T11:05:48.862Z,3.87
2023-05-10T11:08:17.398Z,3.80
2023-05-10T11:11:09.980Z,3.95
2023-05-10T11:13:51.658Z,3.17
2023-05-10T11:16:20.900Z,3.80
2023-05-10T11:19:10.528Z,3.50
2023-05-10T11:22:14.901Z,3.80
2023-05-10T11:24:57.895Z,4.03
2023-05-10T11:27:25.838Z,3.53
2023-05-10T11:29:53.740Z,3.50
2023-05-10T11:32:21.819Z,3.50
2023-05-10T11:34:49.621Z,3.10
2023-05-10T11:37:19.307Z,3.20
2023-05-10T11:39:50.336Z,3.37
2023-05-10T11:42:18.311Z,3.72
2023-05-10T11:44:48.020Z,3.20
2023-05-10T11:47:15.673Z,3.25
2023-05-10T11:49:47.773Z,2.95
2023-05-10T11:52:15.433Z,3.22
2023-05-10T11:54:51.783Z,3.47
2023-05-10T11:57:21.293Z,2.77
2023-05-10T11:59:51.180Z,3.60
2023-05-10T12:02:18.910Z,3.00
2023-05-10T12:04:46.769Z,3.20
2023-05-10T12:07:14.532Z,3.08
2023-05-10T12:09:46.021Z,2.77
2023-05-10T12:12:22.882Z,2.85
2023-05-10T12:14:51.834Z,2.67
2023-05-10T12:17:19.661Z,2.87
2023-05-10T12:19:48.208Z,2.70
2023-05-10T12:22:15.934Z,2.70
2023-05-10T12:24:46.373Z,2.83
2023-05-10T12:27:13.985Z,2.58
2023-05-10T12:29:45.433Z,2.58
2023-05-10T12:32:13.370Z,2.42
2023-05-10T12:34:41.140Z,2.60
2023-05-10T12:37:08.636Z,2.35
2023-05-10T12:39:44.003Z,2.60
2023-05-10T12:42:12.112Z,2.45
2023-05-10T12:44:40.872Z,2.37
2023-05-10T12:47:08.502Z,2.40
2023-05-10T12:49:36.435Z,2.83
2023-05-10T12:52:04.400Z,2.70
2023-05-10T12:54:31.947Z,3.03
2023-05-10T12:56:59.385Z,3.25
2023-05-10T12:59:27.100Z,3.40
2023-05-10T13:01:54.565Z,2.60
2023-05-10T13:04:22.041Z,2.42
2023-05-10T13:06:49.888Z,2.53
2023-05-10T13:09:17.336Z,2.65
2023-05-10T13:11:45.088Z,2.97
2023-05-10T13:14:12.858Z,2.62
2023-05-10T13:16:40.354Z,2.58
2023-05-10T13:19:07.951Z,2.92
2023-05-10T13:21:35.787Z,2.65
2023-05-10T13:24:03.391Z,2.33
2023-05-10T13:26:30.933Z,2.83
2023-05-10T13:28:58.796Z,2.42
2023-05-10T13:31:26.544Z,2.65
2023-05-10T13:33:54.207Z,1.70
2023-05-10T13:36:22.243Z,2.50
2023-05-10T13:38:50.035Z,2.45
2023-05-10T13:41:17.697Z,1.80
2023-05-10T13:43:45.479Z,2.28
2023-05-10T13:46:13.388Z,2.42
2023-05-10T13:48:40.918Z,2.80
2023-05-10T13:51:08.983Z,2.75
2023-05-10T13:53:36.528Z,3.80
2023-05-10T13:56:04.145Z,2.15
2023-05-10T13:58:31.941Z,2.17
2023-05-10T14:00:59.414Z,2.00
2023-05-10T14:03:27.270Z,2.83
2023-05-10T14:05:54.841Z,2.42
2023-05-10T14:08:22.691Z,1.90
2023-05-10T14:10:51.747Z,2.47
2023-05-10T14:13:19.228Z,2.43
2023-05-10T14:15:47.062Z,2.28
2023-05-10T14:18:15.402Z,2.40
2023-05-10T14:20:43.003Z,2.30
2023-05-10T14:23:11.946Z,2.20
2023-05-10T14:25:42.886Z,2.53
2023-05-10T14:28:10.701Z,1.65
2023-05-10T14:30:38.211Z,1.90
2023-05-10T14:33:06.051Z,2.50
2023-05-10T14:35:33.926Z,2.53
2023-05-10T14:38:01.530Z,2.60
2023-05-10T14:40:29.761Z,2.92
2023-05-10T14:42:57.451Z,2.37
2023-05-10T14:45:25.079Z,2.37
2023-05-10T14:47:52.973Z,1.90
2023-05-10T14:50:35.299Z,2.10
2023-05-10T14:53:04.837Z,2.65
2023-05-10T14:55:32.510Z,1.95
2023-05-10T14:57:59.963Z,1.60
2023-05-10T15:00:30.086Z,2.20
2023-05-10T15:02:58.590Z,1.70
2023-05-10T15:05:26.718Z,1.90
2023-05-10T15:07:55.095Z,2.12
2023-05-10T15:10:22.688Z,1.95
2023-05-10T15:12:51.138Z,1.60
2023-05-10T15:15:19.068Z,1.50
2023-05-10T15:17:46.995Z,1.80
2023-05-10T15:20:15.120Z,1.62
2023-05-10T15:22:42.938Z,1.70
2023-05-10T15:25:10.892Z,1.48
2023-05-10T15:27:38.486Z,2.03
2023-05-10T15:30:07.342Z,2.45
2023-05-10T15:32:34.847Z,1.98
2023-05-10T15:35:02.816Z,1.83
2023-05-10T15:37:30.592Z,1.90
2023-05-10T15:40:04.428Z,1.90
2023-05-10T15:42:32.850Z,1.62
2023-05-10T15:45:00.411Z,1.30
2023-05-10T15:47:30.904Z,1.90
2023-05-10T15:49:59.027Z,2.35
2023-05-10T15:52:26.600Z,1.90
2023-05-10T15:54:54.242Z,1.80
2023-05-10T15:57:22.062Z,1.77
2023-05-10T15:59:49.636Z,2.40
2023-05-10T16:02:19.360Z,1.60
2023-05-10T16:04:47.447Z,1.63
2023-05-10T16:07:14.963Z,1.77
2023-05-10T16:09:42.662Z,1.83
2023-05-10T16:12:10.718Z,2.12
2023-05-10T16:14:38.252Z,1.55
2023-05-10T16:17:05.933Z,1.50
2023-05-10T16:19:33.964Z,1.80
2023-05-10T16:22:01.736Z,2.20
2023-05-10T16:24:29.514Z,1.92
2023-05-10T16:26:57.403Z,1.65
2023-05-10T16:29:26.291Z,2.00
2023-05-10T16:31:54.000Z,1.67
2023-05-10T16:34:25.416Z,1.70
2023-05-10T16:36:53.085Z,1.87
2023-05-10T16:39:21.474Z,2.00
2023-05-10T16:41:49.315Z,2.03
2023-05-10T16:44:18.916Z,1.80
2023-05-10T16:46:48.008Z,1.50
2023-05-10T16:49:16.483Z,1.50
2023-05-10T16:51:44.051Z,1.60
2023-05-10T16:54:11.698Z,1.90
2023-05-10T16:56:39.557Z,2.70
2023-05-10T16:59:07.061Z,1.92
2023-05-10T17:01:34.675Z,1.90
2023-05-10T17:04:03.330Z,1.50
2023-05-10T17:06:34.089Z,1.40
2023-05-10T17:09:02.039Z,1.52
2023-05-10T17:11:30.101Z,1.48
2023-05-10T17:13:59.261Z,1.90
2023-05-10T17:16:27.406Z,2.12
2023-05-10T17:18:54.948Z,1.60
2023-05-10T17:21:22.532Z,2.17
2023-05-10T17:23:50.390Z,2.10
2023-05-10T17:26:17.919Z,2.00
2023-05-10T17:28:45.549Z,2.28
2023-05-10T17:31:13.453Z,1.87
2023-05-10T17:33:41.033Z,1.33
2023-05-10T17:36:08.659Z,2.20
2023-05-10T17:38:36.974Z,2.05
2023-05-10T17:41:04.472Z,1.60
2023-05-10T17:43:31.960Z,2.03
2023-05-10T17:45:59.883Z,1.60
2023-05-10T17:48:27.743Z,1.85
2023-05-10T17:50:55.306Z,1.83
2023-05-10T17:53:23.363Z,2.05
2023-05-10T17:55:51.783Z,1.60
2023-05-10T17:58:19.265Z,1.85
2023-05-10T18:00:47.112Z,2.10
2023-05-10T18:03:15.108Z,1.70
2023-05-10T18:05:42.732Z,1.87
2023-05-10T18:08:10.426Z,2.17
2023-05-10T18:10:40.631Z,2.58
2023-05-10T18:13:09.488Z,1.62
2023-05-10T18:15:37.583Z,2.08
2023-05-10T18:18:05.684Z,2.15
2023-05-10T18:20:33.553Z,2.30
2023-05-10T18:23:04.233Z,1.95
2023-05-10T18:25:32.066Z,1.95
2023-05-10T18:27:59.563Z,1.60
2023-05-10T18:30:27.048Z,1.90
2023-05-10T18:32:55.663Z,1.83
2023-05-10T18:35:23.291Z,1.90
2023-05-10T18:37:50.972Z,1.80
2023-05-10T18:40:19.653Z,1.60
2023-05-10T18:42:47.408Z,1.62
2023-05-10T18:45:15.216Z,1.90
2023-05-10T18:47:43.304Z,1.33
2023-05-10T18:50:11.399Z,1.62
2023-05-10T18:52:38.987Z,1.70
2023-05-10T18:55:07.492Z,1.95
2023-05-10T18:57:41.217Z,1.77
2023-05-10T19:00:10.853Z,1.60
2023-05-10T19:02:42.111Z,1.62
2023-05-10T19:05:10.470Z,1.75
2023-05-10T19:07:38.298Z,1.80
2023-05-10T19:10:06.542Z,1.30
2023-05-10T19:12:34.627Z,1.70
2023-05-10T19:15:02.171Z,1.67
2023-05-10T19:17:30.280Z,1.80
2023-05-10T19:19:59.298Z,1.98
2023-05-10T19:22:45.002Z,1.77
2023-05-10T19:25:17.094Z,1.50
2023-05-10T19:27:45.342Z,1.25
2023-05-10T19:30:13.349Z,1.70
2023-05-10T19:32:44.210Z,1.60
2023-05-10T19:35:13.721Z,1.50
2023-05-10T19:37:46.017Z,1.83
2023-05-10T19:40:18.629Z,1.80
2023-05-10T19:42:46.725Z,1.90
2023-05-10T19:45:15.916Z,1.60
2023-05-10T19:47:43.956Z,1.50
2023-05-10T19:50:12.609Z,1.37
2023-05-10T19:52:40.346Z,1.60
2023-05-10T19:55:08.866Z,1.45
2023-05-10T19:57:37.194Z,1.73
2023-05-10T20:00:05.347Z,1.30
2023-05-10T20:02:39.095Z,1.98
2023-05-10T20:05:07.502Z,1.60
2023-05-10T20:07:34.990Z,1.73
2023-05-10T20:10:03.091Z,1.62
2023-05-10T20:12:30.969Z,1.70
2023-05-10T20:14:58.532Z,1.20
2023-05-10T20:17:26.028Z,1.40
2023-05-10T20:19:53.803Z,1.37
2023-05-10T20:22:21.466Z,1.90
2023-05-10T20:24:48.993Z,1.97
2023-05-10T20:27:17.174Z,1.40
2023-05-10T20:29:44.715Z,1.90
2023-05-10T20:32:12.225Z,1.92
2023-05-10T20:34:40.150Z,1.70
2023-05-10T20:37:08.177Z,1.50
2023-05-10T20:39:35.962Z,2.10
2023-05-10T20:42:03.895Z,1.80
2023-05-10T20:44:31.401Z,1.55
2023-05-10T20:46:58.882Z,1.90
2023-05-10T20:49:28.093Z,2.07
2023-05-10T20:51:55.980Z,1.62
2023-05-10T20:54:24.433Z,1.62
2023-05-10T20:56:52.280Z,1.48
2023-05-10T20:59:19.808Z,1.73
2023-05-10T21:01:47.518Z,1.27
2023-05-10T21:04:15.344Z,1.80
2023-05-10T21:06:46.163Z,1.58
2023-05-10T21:09:13.701Z,1.80
2023-05-10T21:11:41.634Z,1.87
2023-05-10T21:14:09.785Z,1.73
2023-05-10T21:16:37.376Z,1.30
2023-05-10T21:19:07.270Z,1.40
2023-05-10T21:21:35.225Z,1.55
2023-05-10T21:24:02.706Z,2.12
2023-05-10T21:26:31.393Z,2.37
2023-05-10T21:28:59.387Z,1.40
2023-05-10T21:31:27.009Z,1.48
2023-05-10T21:33:54.909Z,1.80
2023-05-10T21:36:22.862Z,1.58
2023-05-10T21:38:50.739Z,2.10
2023-05-10T21:41:18.673Z,1.85
2023-05-10T21:43:46.136Z,1.77
2023-05-10T21:46:14.407Z,1.62
2023-05-10T21:48:42.303Z,1.90
2023-05-10T21:51:09.914Z,1.90
2023-05-10T21:53:39.080Z,1.67
2023-05-10T21:56:07.410Z,1.52
2023-05-10T21:58:34.922Z,1.80
2023-05-10T22:01:03.405Z,1.87
2023-05-10T22:03:31.422Z,1.90
2023-05-10T22:05:58.974Z,2.00
2023-05-10T22:08:26.795Z,2.22
2023-05-10T22:10:54.593Z,1.95
2023-05-10T22:13:22.130Z,2.33
2023-05-10T22:15:49.711Z,1.90
2023-05-10T22:18:17.653Z,1.80
2023-05-10T22:20:46.533Z,1.67
2023-05-10T22:23:14.386Z,2.20
2023-05-10T22:25:42.251Z,1.90
2023-05-10T22:28:10.418Z,1.87
2023-05-10T22:30:38.009Z,1.87
2023-05-10T22:33:06.619Z,1.50
2023-05-10T22:35:34.327Z,1.87
2023-05-10T22:38:01.883Z,2.05
2023-05-10T22:40:29.705Z,2.00
2023-05-10T22:42:57.215Z,2.10
2023-05-10T22:45:24.673Z,1.80
2023-05-10T22:47:52.484Z,2.35
2023-05-10T22:50:21.129Z,2.05
2023-05-10T22:52:48.752Z,2.23
2023-05-10T22:55:17.077Z,1.92
2023-05-10T22:57:44.657Z,2.20
2023-05-10T23:00:12.649Z,1.85
2023-05-10T23:02:40.587Z,2.10
2023-05-10T23:05:08.775Z,2.03
2023-05-10T23:07:36.455Z,1.80
2023-05-10T23:10:04.530Z,2.35
2023-05-10T23:12:32.088Z,1.73
2023-05-10T23:14:59.734Z,2.28
2023-05-10T23:17:27.637Z,2.20
2023-05-10T23:19:55.278Z,2.30
2023-05-10T23:22:22.823Z,2.00
2023-05-10T23:24:50.646Z,2.05
2023-05-10T23:27:18.218Z,2.15
2023-05-10T23:29:45.738Z,2.07
2023-05-10T23:32:13.550Z,2.30
2023-05-10T23:34:41.082Z,2.20
2023-05-10T23:37:08.598Z,1.90
2023-05-10T23:39:36.449Z,1.75
2023-05-10T23:42:04.239Z,2.20
2023-05-10T23:44:31.807Z,2.08
2023-05-10T23:46:59.578Z,2.00
2023-05-10T23:49:27.241Z,2.10
2023-05-10T23:51:54.858Z,2.35
2023-05-10T23:54:22.733Z,2.33
2023-05-10T23:56:51.631Z,2.30
2023-05-10T23:59:19.158Z,2.00
